Terminal Aerodrome Forecast
Issued by NWS

Home | Current Version | Previous Version | Text Only | Print | Product List | Glossary On
Versions: 1 2 3 4 5 6 7 8 9 10 11 12 13 14 15 16 17 18 19 20 21 22 23
000
FTUS45 KBOI 022337
TAFMYL
TAF
KMYL 022337Z 0300/0324 21010G20KT P6SM BKN150
     FM030300 35007KT P6SM BKN080=

USA.gov is the U.S. government's official web portal to all federal, state and local government web resources and services.